createdAt,value
2022-10-12T00:01:03.828Z,96.58
2022-10-12T00:03:30.352Z,96.27
2022-10-12T00:06:06.246Z,96.63
2022-10-12T00:08:35.121Z,96.84
2022-10-12T00:11:02.051Z,96.13
2022-10-12T00:13:28.816Z,96.91
2022-10-12T00:15:55.664Z,96.27
2022-10-12T00:18:22.298Z,96.46
2022-10-12T00:20:48.837Z,96.87
2022-10-12T00:23:15.407Z,96.55
2022-10-12T00:25:42.398Z,96.79
2022-10-12T00:28:09.027Z,96.53
2022-10-12T00:30:40.119Z,96.84
2022-10-12T00:33:06.719Z,97.12
2022-10-12T00:35:33.179Z,96.45
2022-10-12T00:37:59.727Z,96.61
2022-10-12T00:40:26.383Z,96.69
2022-10-12T00:42:53.107Z,96.71
2022-10-12T00:45:19.700Z,97.07
2022-10-12T00:47:59.918Z,97.01
2022-10-12T00:50:35.287Z,97.11
2022-10-12T00:53:07.887Z,96.81
2022-10-12T00:55:40.659Z,97.15
2022-10-12T00:58:08.388Z,96.87
2022-10-12T01:00:37.103Z,96.85
2022-10-12T01:03:05.691Z,97.30
2022-10-12T01:05:33.271Z,97.21
2022-10-12T01:08:00.698Z,97.29
2022-10-12T01:10:27.862Z,96.91
2022-10-12T01:12:56.156Z,97.56
2022-10-12T01:15:27.268Z,97.22
2022-10-12T01:18:14.873Z,97.44
2022-10-12T01:21:09.316Z,96.99
2022-10-12T01:23:55.045Z,97.25
2022-10-12T01:26:40.583Z,96.78
2022-10-12T01:29:25.685Z,96.81
2022-10-12T01:32:01.770Z,97.02
2022-10-12T01:34:40.130Z,97.06
2022-10-12T01:37:17.658Z,96.51
2022-10-12T01:39:52.929Z,96.93
2022-10-12T01:42:37.252Z,97.40
2022-10-12T01:45:06.821Z,97.23
2022-10-12T01:47:36.003Z,96.95
2022-10-12T01:50:04.548Z,96.99
2022-10-12T01:52:39.668Z,96.50
2022-10-12T01:55:29.805Z,97.29
2022-10-12T01:58:09.183Z,96.99
2022-10-12T02:00:46.330Z,97.13
2022-10-12T02:03:35.988Z,97.21
2022-10-12T02:06:12.021Z,97.14
2022-10-12T02:08:50.891Z,96.62
2022-10-12T02:11:20.039Z,97.06
2022-10-12T02:14:13.036Z,96.86
2022-10-12T02:16:45.934Z,96.68
2022-10-12T02:19:17.776Z,97.08
2022-10-12T02:21:46.496Z,97.16
2022-10-12T02:24:15.730Z,97.63
2022-10-12T02:26:44.164Z,97.33
2022-10-12T02:29:16.077Z,97.72
2022-10-12T02:31:48.316Z,97.47
2022-10-12T02:34:18.957Z,97.37
2022-10-12T02:37:01.269Z,98.01
2022-10-12T02:39:37.791Z,97.98
2022-10-12T02:42:10.327Z,97.34
2022-10-12T02:44:40.350Z,97.78
2022-10-12T02:47:09.712Z,97.34
2022-10-12T02:49:36.797Z,98.26
2022-10-12T02:52:05.511Z,98.16
2022-10-12T02:54:32.123Z,97.68
2022-10-12T02:56:58.686Z,98.06
2022-10-12T02:59:25.343Z,97.81
2022-10-12T03:01:51.833Z,98.07
2022-10-12T03:04:18.391Z,97.47
2022-10-12T03:06:45.085Z,97.36
2022-10-12T03:09:11.588Z,97.52
2022-10-12T03:11:38.141Z,97.60
2022-10-12T03:14:04.691Z,97.49
2022-10-12T03:16:31.500Z,97.13
2022-10-12T03:18:58.509Z,97.44
2022-10-12T03:21:25.034Z,96.75
2022-10-12T03:23:51.720Z,97.29
2022-10-12T03:26:18.271Z,97.40
2022-10-12T03:28:45.137Z,96.94
2022-10-12T03:31:13.079Z,97.70
2022-10-12T03:33:39.603Z,97.49
2022-10-12T03:36:06.546Z,97.46
2022-10-12T03:38:33.070Z,97.45
2022-10-12T03:41:04.197Z,97.20
2022-10-12T03:43:33.944Z,97.71
2022-10-12T03:46:00.477Z,97.89
2022-10-12T03:48:27.100Z,97.75
2022-10-12T03:50:53.715Z,98.00
2022-10-12T03:53:20.426Z,97.77
2022-10-12T03:55:46.977Z,97.67
2022-10-12T03:58:13.705Z,97.60
2022-10-12T04:00:40.380Z,97.58
2022-10-12T04:03:06.992Z,97.81
2022-10-12T04:05:33.773Z,97.65
2022-10-12T04:08:00.321Z,98.39
2022-10-12T04:10:27.073Z,97.76
2022-10-12T04:12:53.717Z,97.72
2022-10-12T04:15:20.227Z,98.16
2022-10-12T04:17:46.894Z,97.83
2022-10-12T04:20:13.462Z,98.38
2022-10-12T04:22:40.130Z,97.74
2022-10-12T04:25:06.916Z,97.87
2022-10-12T04:27:33.468Z,97.39
2022-10-12T04:29:59.975Z,97.80
2022-10-12T04:32:27.069Z,97.76
2022-10-12T04:34:53.590Z,97.72
2022-10-12T04:37:20.064Z,97.27
2022-10-12T04:39:46.759Z,97.56
2022-10-12T04:42:13.523Z,97.66
2022-10-12T04:44:40.048Z,97.93
2022-10-12T04:47:06.802Z,97.83
2022-10-12T04:49:33.322Z,97.76
2022-10-12T04:51:59.850Z,97.64
2022-10-12T04:54:26.544Z,97.69
2022-10-12T04:56:53.173Z,97.63
2022-10-12T04:59:19.673Z,97.76
2022-10-12T05:01:46.264Z,97.49
2022-10-12T05:04:12.831Z,97.75
2022-10-12T05:06:39.383Z,97.88
2022-10-12T05:09:06.154Z,98.01
2022-10-12T05:11:32.721Z,98.26
2022-10-12T05:13:59.248Z,98.27
2022-10-12T05:16:25.790Z,98.09
2022-10-12T05:18:52.445Z,97.79
2022-10-12T05:21:19.699Z,98.05
2022-10-12T05:23:53.030Z,98.45
2022-10-12T05:26:19.658Z,97.96
2022-10-12T05:28:46.518Z,98.41
2022-10-12T05:31:13.267Z,98.12
2022-10-12T05:33:39.999Z,98.15
2022-10-12T05:36:06.883Z,98.46
2022-10-12T05:38:33.526Z,97.96
2022-10-12T05:41:00.907Z,98.32
2022-10-12T05:43:28.109Z,98.16
2022-10-12T05:45:54.726Z,98.04
2022-10-12T05:48:21.322Z,98.35
2022-10-12T05:50:47.846Z,98.13
2022-10-12T05:53:14.399Z,98.35
2022-10-12T05:55:40.979Z,98.23
2022-10-12T05:58:07.596Z,98.28
2022-10-12T06:00:34.142Z,97.87
2022-10-12T06:03:03.609Z,97.71
2022-10-12T06:05:30.202Z,97.83
2022-10-12T06:07:56.755Z,97.91
2022-10-12T06:10:27.649Z,98.01
2022-10-12T06:12:56.373Z,98.59
2022-10-12T06:15:23.033Z,98.09
2022-10-12T06:17:49.610Z,97.71
2022-10-12T06:20:16.218Z,97.91
2022-10-12T06:22:42.778Z,98.04
2022-10-12T06:25:09.716Z,97.48
2022-10-12T06:27:36.229Z,97.85
2022-10-12T06:30:03.303Z,98.35
2022-10-12T06:32:29.863Z,98.42
2022-10-12T06:34:56.632Z,98.86
2022-10-12T06:37:47.964Z,98.81
2022-10-12T06:40:10.342Z,98.76
2022-10-12T06:42:37.197Z,99.31
2022-10-12T06:45:06.188Z,99.38
2022-10-12T06:47:32.912Z,99.13
2022-10-12T06:49:59.422Z,99.39
2022-10-12T06:52:25.980Z,99.51
2022-10-12T06:54:52.572Z,99.76
2022-10-12T06:57:19.090Z,99.97
2022-10-12T06:59:45.598Z,100.00
2022-10-12T07:02:12.118Z,100.00
2022-10-12T07:04:38.716Z,100.00
2022-10-12T07:07:05.270Z,100.00
2022-10-12T07:09:31.905Z,100.00
2022-10-12T07:11:58.523Z,100.00
2022-10-12T07:14:25.104Z,100.00
2022-10-12T07:16:55.263Z,100.00
2022-10-12T07:19:22.199Z,100.00
2022-10-12T07:21:48.808Z,100.00
2022-10-12T07:24:15.413Z,100.00
2022-10-12T07:26:42.077Z,100.00
2022-10-12T07:29:09.271Z,100.00
2022-10-12T07:31:39.740Z,100.00
2022-10-12T07:34:06.264Z,100.00
2022-10-12T07:36:57.428Z,100.00
2022-10-12T07:39:21.466Z,100.00
2022-10-12T07:41:48.716Z,100.00
2022-10-12T07:44:15.476Z,100.00
2022-10-12T07:46:42.541Z,100.00
2022-10-12T07:49:11.351Z,100.00
2022-10-12T07:51:38.272Z,100.00
2022-10-12T07:54:04.990Z,100.00
2022-10-12T07:56:31.806Z,100.00
2022-10-12T07:58:58.966Z,100.00
2022-10-12T08:01:28.244Z,100.00
2022-10-12T08:04:00.268Z,100.00
2022-10-12T08:06:31.539Z,100.00
2022-10-12T08:08:59.393Z,100.00
2022-10-12T08:11:25.951Z,100.00
2022-10-12T08:13:52.518Z,100.00
2022-10-12T08:16:21.198Z,100.00
2022-10-12T08:18:48.187Z,100.00
2022-10-12T08:21:16.837Z,100.00
2022-10-12T08:23:45.078Z,100.00
2022-10-12T08:26:12.727Z,100.00
2022-10-12T08:28:39.370Z,100.00
2022-10-12T08:31:11.416Z,100.00
2022-10-12T08:33:38.057Z,100.00
2022-10-12T08:36:06.571Z,100.00
2022-10-12T08:38:34.100Z,100.00
2022-10-12T08:41:11.333Z,100.00
2022-10-12T08:43:48.750Z,100.00
2022-10-12T08:46:21.429Z,100.00
2022-10-12T08:48:55.355Z,100.00
2022-10-12T08:51:26.074Z,100.00
2022-10-12T08:53:58.506Z,100.00
2022-10-12T08:56:25.355Z,100.00
2022-10-12T08:58:53.218Z,100.00
2022-10-12T09:01:37.126Z,100.00
2022-10-12T09:04:41.892Z,100.00
2022-10-12T09:07:14.777Z,100.00
2022-10-12T09:10:06.285Z,100.00
2022-10-12T09:13:10.460Z,100.00
2022-10-12T09:16:05.804Z,99.96
2022-10-12T09:18:41.809Z,98.97
2022-10-12T09:21:16.867Z,98.51
2022-10-12T09:23:46.725Z,98.24
2022-10-12T09:26:13.307Z,97.50
2022-10-12T09:28:44.115Z,97.58
2022-10-12T09:31:10.733Z,97.18
2022-10-12T09:33:46.066Z,95.98
2022-10-12T09:36:19.538Z,95.72
2022-10-12T09:38:47.529Z,95.25
2022-10-12T09:41:22.845Z,94.68
2022-10-12T09:43:56.086Z,94.59
2022-10-12T09:46:55.831Z,93.36
2022-10-12T09:49:22.377Z,92.40
2022-10-12T09:51:59.836Z,91.30
2022-10-12T09:54:27.970Z,90.26
2022-10-12T09:56:55.302Z,89.75
2022-10-12T09:59:32.343Z,89.18
2022-10-12T10:02:09.645Z,88.69
2022-10-12T10:04:37.842Z,88.07
2022-10-12T10:07:30.778Z,87.26
2022-10-12T10:10:14.423Z,86.11
2022-10-12T10:12:52.114Z,84.82
2022-10-12T10:15:35.620Z,83.96
2022-10-12T10:18:05.958Z,83.19
2022-10-12T10:20:36.600Z,82.24
2022-10-12T10:23:05.232Z,81.23
2022-10-12T10:25:33.255Z,80.60
2022-10-12T10:28:21.259Z,78.95
2022-10-12T10:31:21.916Z,78.86
2022-10-12T10:34:11.282Z,78.03
2022-10-12T10:36:43.965Z,77.67
2022-10-12T10:39:21.522Z,76.91
2022-10-12T10:41:48.475Z,76.04
2022-10-12T10:44:33.563Z,73.81
2022-10-12T10:47:04.790Z,74.07
2022-10-12T10:49:55.586Z,73.86
2022-10-12T10:52:23.796Z,73.01
2022-10-12T10:55:14.788Z,72.66
2022-10-12T10:57:50.329Z,73.22
2022-10-12T11:00:37.819Z,71.60
2022-10-12T11:03:23.739Z,70.51
2022-10-12T11:06:05.619Z,70.53
2022-10-12T11:08:36.844Z,69.82
2022-10-12T11:11:15.147Z,69.83
2022-10-12T11:13:47.766Z,69.30
2022-10-12T11:16:28.053Z,68.13
2022-10-12T11:18:57.824Z,65.80
2022-10-12T11:21:45.847Z,66.26
2022-10-12T11:24:17.381Z,66.88
2022-10-12T11:26:56.947Z,66.69
2022-10-12T11:29:23.944Z,67.35
2022-10-12T11:32:00.609Z,66.52
2022-10-12T11:34:31.564Z,66.33
2022-10-12T11:39:49.784Z,65.03
2022-10-12T11:42:28.591Z,65.49
2022-10-12T11:44:55.200Z,65.01
2022-10-12T11:47:47.101Z,64.46
2022-10-12T11:50:28.587Z,65.45
2022-10-12T11:52:57.828Z,65.65
2022-10-12T11:55:41.117Z,64.98
2022-10-12T11:58:24.382Z,64.76
2022-10-12T12:01:29.470Z,64.53
2022-10-12T12:04:39.807Z,65.01
2022-10-12T12:07:06.500Z,64.68
2022-10-12T12:09:39.830Z,64.78
2022-10-12T12:12:16.126Z,64.94
2022-10-12T12:14:54.943Z,64.58
2022-10-12T12:17:26.915Z,64.29
2022-10-12T12:20:00.037Z,64.08
2022-10-12T12:22:54.566Z,64.41
2022-10-12T12:25:32.808Z,64.67
2022-10-12T12:28:21.813Z,64.39
2022-10-12T12:30:59.504Z,65.11
2022-10-12T12:33:32.258Z,64.90
2022-10-12T12:36:07.856Z,64.62
2022-10-12T12:38:40.120Z,64.71
2022-10-12T12:41:12.223Z,64.87
2022-10-12T12:43:56.157Z,64.87
2022-10-12T12:46:25.011Z,62.99
2022-10-12T12:48:51.444Z,62.98
2022-10-12T12:51:24.816Z,63.21
2022-10-12T12:54:00.054Z,63.20
2022-10-12T12:56:29.319Z,63.66
2022-10-12T12:59:23.918Z,63.49
2022-10-12T13:01:53.182Z,63.63
2022-10-12T13:04:54.437Z,63.54
2022-10-12T13:07:45.274Z,63.74
2022-10-12T13:10:37.459Z,63.29
2022-10-12T13:13:15.889Z,62.74
2022-10-12T13:15:55.111Z,62.89
2022-10-12T13:18:46.417Z,62.48
2022-10-12T13:21:21.722Z,61.97
2022-10-12T13:23:51.525Z,61.75
2022-10-12T13:26:24.459Z,62.59
2022-10-12T13:28:52.643Z,61.98
2022-10-12T13:31:31.934Z,61.85
2022-10-12T13:34:42.538Z,62.52
2022-10-12T13:37:14.940Z,62.06
2022-10-12T13:39:44.782Z,61.66
2022-10-12T13:42:26.542Z,61.59
2022-10-12T13:44:53.873Z,61.64
2022-10-12T13:47:32.756Z,62.01
2022-10-12T13:50:00.097Z,61.49
2022-10-12T13:52:32.928Z,61.92
2022-10-12T13:55:01.068Z,61.45
2022-10-12T13:57:39.088Z,61.57
2022-10-12T14:00:25.044Z,61.65
2022-10-12T14:03:00.497Z,61.18
2022-10-12T14:05:30.053Z,61.08
2022-10-12T14:08:02.453Z,61.35
2022-10-12T14:10:32.908Z,61.43
2022-10-12T14:13:02.082Z,61.69
2022-10-12T14:15:33.860Z,61.86
2022-10-12T14:18:00.344Z,61.21
2022-10-12T14:20:37.365Z,61.78
2022-10-12T14:23:13.123Z,62.02
2022-10-12T14:25:55.070Z,61.47
2022-10-12T14:28:30.955Z,61.59
2022-10-12T14:30:57.607Z,61.00
2022-10-12T14:33:26.712Z,61.33
2022-10-12T14:36:25.851Z,60.77
2022-10-12T14:38:53.225Z,61.34
2022-10-12T14:41:28.697Z,61.20
2022-10-12T14:44:14.272Z,61.51
2022-10-12T14:46:46.375Z,61.28
2022-10-12T14:49:32.662Z,61.04
2022-10-12T14:51:59.978Z,61.37
2022-10-12T14:54:26.548Z,61.01
2022-10-12T14:56:53.177Z,61.27
2022-10-12T14:59:19.753Z,61.42
2022-10-12T15:01:50.927Z,61.75
2022-10-12T15:04:18.399Z,62.49
2022-10-12T15:06:50.488Z,62.44
2022-10-12T15:09:17.579Z,62.71
2022-10-12T15:11:44.152Z,62.60
2022-10-12T15:14:11.683Z,62.88
2022-10-12T15:16:39.000Z,63.20
2022-10-12T15:19:05.584Z,63.06
2022-10-12T15:21:32.149Z,63.38
2022-10-12T15:23:58.727Z,63.76
2022-10-12T15:26:25.349Z,63.96
2022-10-12T15:28:51.983Z,63.92
2022-10-12T15:31:19.189Z,64.17
2022-10-12T15:33:46.009Z,64.22
2022-10-12T15:36:12.704Z,64.72
2022-10-12T15:38:39.870Z,64.69
2022-10-12T15:41:13.286Z,64.85
2022-10-12T15:43:41.995Z,64.79
2022-10-12T15:46:12.241Z,65.25
2022-10-12T15:48:40.116Z,64.98
2022-10-12T15:51:18.312Z,65.42
2022-10-12T15:53:44.973Z,65.11
2022-10-12T15:56:14.343Z,65.28
2022-10-12T15:58:41.206Z,65.39
2022-10-12T16:01:12.747Z,65.57
2022-10-12T16:03:39.804Z,65.90
2022-10-12T16:06:08.227Z,65.48
2022-10-12T16:08:35.267Z,65.91
2022-10-12T16:11:12.607Z,66.58
2022-10-12T16:13:46.849Z,66.83
2022-10-12T16:16:19.291Z,67.12
2022-10-12T16:18:45.899Z,67.36
2022-10-12T16:21:12.946Z,67.63
2022-10-12T16:23:41.212Z,68.09
2022-10-12T16:26:11.654Z,68.13
2022-10-12T16:28:38.392Z,68.79
2022-10-12T16:31:15.426Z,68.92
2022-10-12T16:33:42.488Z,69.48
2022-10-12T16:36:11.523Z,69.84
2022-10-12T16:38:38.042Z,70.11
2022-10-12T16:41:09.633Z,70.52
2022-10-12T16:43:36.190Z,70.85
2022-10-12T16:46:03.432Z,71.27
2022-10-12T16:48:30.114Z,71.32
2022-10-12T16:50:57.129Z,71.97
2022-10-12T16:53:23.695Z,72.41
2022-10-12T16:55:50.314Z,72.42
2022-10-12T16:58:17.027Z,73.36
2022-10-12T17:00:43.901Z,73.62
2022-10-12T17:03:14.067Z,73.55
2022-10-12T17:05:41.978Z,73.98
2022-10-12T17:08:12.633Z,74.51
2022-10-12T17:10:44.248Z,74.69
2022-10-12T17:13:13.462Z,75.25
2022-10-12T17:15:42.075Z,75.39
2022-10-12T17:18:11.244Z,76.04
2022-10-12T17:20:37.968Z,75.71
2022-10-12T17:23:04.576Z,76.20
2022-10-12T17:25:31.341Z,76.28
2022-10-12T17:27:57.921Z,77.11
2022-10-12T17:30:24.788Z,77.36
2022-10-12T17:32:51.304Z,77.52
2022-10-12T17:35:17.998Z,78.10
2022-10-12T17:37:44.579Z,78.12
2022-10-12T17:40:11.512Z,78.64
2022-10-12T17:42:38.173Z,78.24
2022-10-12T17:45:05.375Z,78.26
2022-10-12T17:47:32.012Z,78.72
2022-10-12T17:49:58.949Z,79.00
2022-10-12T17:52:27.934Z,78.97
2022-10-12T17:54:54.570Z,79.26
2022-10-12T17:57:23.961Z,79.50
2022-10-12T17:59:50.527Z,79.92
2022-10-12T18:02:17.018Z,79.68
2022-10-12T18:04:43.516Z,80.02
2022-10-12T18:07:10.989Z,80.74
2022-10-12T18:09:37.487Z,81.00
2022-10-12T18:12:04.023Z,80.87
2022-10-12T18:14:30.599Z,81.62
2022-10-12T18:16:58.751Z,81.58
2022-10-12T18:19:25.300Z,81.41
2022-10-12T18:21:51.833Z,81.86
2022-10-12T18:24:18.741Z,81.83
2022-10-12T18:26:47.124Z,82.33
2022-10-12T18:29:17.462Z,81.91
2022-10-12T18:31:45.459Z,82.31
2022-10-12T18:34:12.140Z,82.30
2022-10-12T18:36:40.751Z,82.73
2022-10-12T18:39:07.383Z,83.04
2022-10-12T18:41:34.111Z,83.67
2022-10-12T18:44:02.490Z,83.92
2022-10-12T18:46:33.042Z,84.30
2022-10-12T18:49:05.015Z,83.94
2022-10-12T18:51:35.682Z,84.35
2022-10-12T18:54:03.369Z,84.89
2022-10-12T18:56:32.086Z,84.96
2022-10-12T18:58:59.936Z,85.05
2022-10-12T19:01:28.255Z,84.86
2022-10-12T19:03:56.224Z,85.47
2022-10-12T19:06:29.933Z,85.66
2022-10-12T19:08:57.524Z,85.70
2022-10-12T19:11:26.266Z,85.63
2022-10-12T19:13:56.392Z,85.51
2022-10-12T19:16:23.614Z,86.03
2022-10-12T19:18:59.339Z,86.26
2022-10-12T19:21:26.924Z,86.09
2022-10-12T19:23:54.421Z,86.71
2022-10-12T19:26:23.927Z,87.01
2022-10-12T19:28:53.165Z,87.07
2022-10-12T19:31:23.235Z,87.25
2022-10-12T19:33:50.294Z,87.23
2022-10-12T19:36:18.357Z,87.89
2022-10-12T19:38:48.133Z,87.49
2022-10-12T19:41:15.077Z,88.27
2022-10-12T19:43:43.147Z,88.21
2022-10-12T19:46:11.471Z,88.01
2022-10-12T19:48:39.172Z,88.25
2022-10-12T19:51:11.680Z,88.39
2022-10-12T19:53:39.593Z,88.23
2022-10-12T19:56:17.268Z,88.83
2022-10-12T19:58:46.695Z,88.46
2022-10-12T20:01:15.515Z,88.74
2022-10-12T20:03:47.473Z,88.69
2022-10-12T20:06:14.873Z,88.97
2022-10-12T20:08:43.768Z,89.31
2022-10-12T20:11:17.843Z,89.24
2022-10-12T20:13:46.785Z,89.23
2022-10-12T20:16:13.978Z,89.34
2022-10-12T20:18:41.855Z,89.61
2022-10-12T20:21:11.551Z,89.69
2022-10-12T20:23:40.335Z,89.67
2022-10-12T20:26:09.640Z,89.58
2022-10-12T20:28:37.854Z,89.44
2022-10-12T20:31:05.711Z,89.98
2022-10-12T20:33:33.539Z,90.38
2022-10-12T20:36:00.713Z,90.44
2022-10-12T20:38:27.858Z,90.52
2022-10-12T20:41:10.201Z,90.62
2022-10-12T20:43:40.323Z,90.73
2022-10-12T20:46:10.275Z,91.07
2022-10-12T20:48:39.683Z,91.09
2022-10-12T20:51:07.910Z,91.38
2022-10-12T20:53:35.568Z,91.00
2022-10-12T20:56:06.578Z,91.41
2022-10-12T20:58:33.467Z,91.49
2022-10-12T21:01:11.707Z,91.63
2022-10-12T21:03:38.816Z,91.90
2022-10-12T21:06:10.798Z,92.17
2022-10-12T21:08:37.784Z,92.28
2022-10-12T21:11:05.407Z,91.99
2022-10-12T21:13:36.583Z,92.10
2022-10-12T21:16:05.523Z,92.19
2022-10-12T21:18:37.601Z,92.29
2022-10-12T21:21:14.386Z,92.54
2022-10-12T21:23:42.273Z,92.69
2022-10-12T21:26:17.496Z,93.15
2022-10-12T21:28:44.840Z,92.93
2022-10-12T21:31:12.570Z,93.20
2022-10-12T21:33:39.702Z,92.99
2022-10-12T21:36:07.796Z,93.57
2022-10-12T21:38:35.248Z,93.11
2022-10-12T21:41:01.770Z,93.24
2022-10-12T21:43:28.367Z,93.44
2022-10-12T21:45:55.118Z,93.73
2022-10-12T21:48:21.765Z,93.68
2022-10-12T21:50:48.399Z,93.34
2022-10-12T21:53:15.026Z,93.13
2022-10-12T21:55:41.685Z,93.59
2022-10-12T21:58:08.295Z,93.47
2022-10-12T22:00:34.882Z,93.38
2022-10-12T22:03:01.772Z,93.35
2022-10-12T22:05:30.328Z,93.62
2022-10-12T22:07:57.090Z,93.83
2022-10-12T22:10:23.719Z,94.11
2022-10-12T22:12:50.273Z,94.08
2022-10-12T22:15:17.029Z,94.22
2022-10-12T22:17:43.619Z,94.36
2022-10-12T22:20:10.889Z,94.39
2022-10-12T22:22:41.670Z,94.04
2022-10-12T22:25:08.383Z,93.82
2022-10-12T22:27:37.381Z,93.99
2022-10-12T22:30:11.569Z,93.57
2022-10-12T22:32:38.080Z,93.74
2022-10-12T22:35:04.924Z,93.77
2022-10-12T22:37:31.456Z,93.53
2022-10-12T22:39:58.194Z,94.21
2022-10-12T22:42:24.906Z,94.00
2022-10-12T22:44:51.573Z,94.32
2022-10-12T22:47:18.182Z,94.16
2022-10-12T22:49:47.005Z,93.51
2022-10-12T22:52:14.055Z,93.86
2022-10-12T22:54:41.081Z,94.12
2022-10-12T22:57:07.653Z,93.51
2022-10-12T22:59:34.492Z,93.70
2022-10-12T23:02:01.042Z,94.08
2022-10-12T23:04:29.579Z,94.21
2022-10-12T23:06:56.088Z,94.17
2022-10-12T23:09:23.587Z,94.37
2022-10-12T23:11:51.909Z,94.38
2022-10-12T23:14:18.469Z,94.34
2022-10-12T23:16:45.001Z,95.09
2022-10-12T23:19:11.551Z,94.99
2022-10-12T23:21:38.092Z,95.19
2022-10-12T23:24:05.224Z,95.20
2022-10-12T23:26:31.957Z,95.56
2022-10-12T23:29:03.638Z,95.58
2022-10-12T23:31:31.014Z,95.54
2022-10-12T23:34:04.690Z,95.73
2022-10-12T23:36:34.094Z,96.17
2022-10-12T23:39:01.842Z,96.09
2022-10-12T23:41:28.729Z,96.66
2022-10-12T23:43:55.363Z,96.88
2022-10-12T23:46:22.334Z,96.94
2022-10-12T23:48:48.953Z,96.79
2022-10-12T23:51:15.488Z,96.52
2022-10-12T23:53:42.750Z,96.70
2022-10-12T23:56:11.116Z,97.07
2022-10-12T23:58:37.812Z,97.39
